createdAt,value
2017-05-18T00:01:41.873Z,59.00
2017-05-18T00:04:08.912Z,59.00
2017-05-18T00:06:35.849Z,58.80
2017-05-18T00:09:02.802Z,58.50
2017-05-18T00:11:29.717Z,58.50
2017-05-18T00:13:56.693Z,58.60
2017-05-18T00:16:24.414Z,58.60
2017-05-18T00:18:51.397Z,58.20
2017-05-18T00:21:18.328Z,58.80
2017-05-18T00:23:45.275Z,59.00
2017-05-18T00:26:12.248Z,58.80
2017-05-18T00:28:39.175Z,59.00
2017-05-18T00:31:06.279Z,58.80
2017-05-18T00:33:33.295Z,59.00
2017-05-18T00:36:00.224Z,59.10
2017-05-18T00:38:27.156Z,58.60
2017-05-18T00:40:54.081Z,58.60
2017-05-18T00:43:21.003Z,58.70
2017-05-18T00:45:49.055Z,58.90
2017-05-18T00:48:15.991Z,59.00
2017-05-18T00:50:42.926Z,59.00
2017-05-18T00:53:09.884Z,58.50
2017-05-18T00:55:36.904Z,59.00
2017-05-18T00:58:04.927Z,59.00
2017-05-18T01:00:32.678Z,59.00
2017-05-18T01:02:59.578Z,58.90
2017-05-18T01:05:26.551Z,59.50
2017-05-18T01:07:53.539Z,58.90
2017-05-18T01:10:20.543Z,58.80
2017-05-18T01:12:48.493Z,58.80
2017-05-18T01:15:15.419Z,58.80
2017-05-18T01:17:42.325Z,58.80
2017-05-18T01:20:09.265Z,58.80
2017-05-18T01:22:36.203Z,58.70
2017-05-18T01:25:03.133Z,59.00
2017-05-18T01:27:30.031Z,59.60
2017-05-18T01:29:57.719Z,59.90
2017-05-18T01:32:24.671Z,59.70
2017-05-18T01:34:51.627Z,60.00
2017-05-18T01:37:18.612Z,60.70
2017-05-18T01:39:45.579Z,60.80
2017-05-18T01:42:13.285Z,60.30
2017-05-18T01:44:40.251Z,60.10
2017-05-18T01:47:07.236Z,60.50
2017-05-18T01:49:34.908Z,59.80
2017-05-18T01:52:02.348Z,60.00
2017-05-18T01:54:29.994Z,59.90
2017-05-18T01:56:56.926Z,59.70
2017-05-18T01:59:23.919Z,60.00
2017-05-18T02:01:50.932Z,59.90
2017-05-18T02:04:17.888Z,60.20
2017-05-18T02:06:44.831Z,60.10
2017-05-18T02:09:11.737Z,60.90
2017-05-18T02:11:38.677Z,61.30
2017-05-18T02:14:05.628Z,60.70
2017-05-18T02:16:33.536Z,60.50
2017-05-18T02:19:00.443Z,60.40
2017-05-18T02:21:27.375Z,60.50
2017-05-18T02:23:54.393Z,60.90
2017-05-18T02:26:21.656Z,60.50
2017-05-18T02:28:48.573Z,61.70
2017-05-18T02:31:15.503Z,61.10
2017-05-18T02:33:42.441Z,60.80
2017-05-18T02:36:09.346Z,61.50
2017-05-18T02:38:36.303Z,61.10
2017-05-18T02:41:08.943Z,61.20
2017-05-18T02:43:35.885Z,61.40
2017-05-18T02:46:03.585Z,61.40
2017-05-18T02:48:30.541Z,61.00
2017-05-18T02:50:57.463Z,62.80
2017-05-18T02:53:24.404Z,62.10
2017-05-18T02:55:52.074Z,61.60
2017-05-18T02:58:19.009Z,61.30
2017-05-18T03:00:46.728Z,61.50
2017-05-18T03:03:20.288Z,61.70
2017-05-18T03:05:47.287Z,62.00
2017-05-18T03:08:14.197Z,62.00
2017-05-18T03:10:41.112Z,61.90
2017-05-18T03:13:08.821Z,62.00
2017-05-18T03:15:35.765Z,61.80
2017-05-18T03:18:02.742Z,62.40
2017-05-18T03:20:30.432Z,62.40
2017-05-18T03:22:59.559Z,62.30
2017-05-18T03:25:26.525Z,62.80
2017-05-18T03:27:53.451Z,62.80
2017-05-18T03:30:20.366Z,63.10
2017-05-18T03:32:48.030Z,63.00
2017-05-18T03:35:15.204Z,63.50
2017-05-18T03:37:42.118Z,63.20
2017-05-18T03:40:10.121Z,63.00
2017-05-18T03:42:37.008Z,63.50
2017-05-18T03:45:03.898Z,62.90
2017-05-18T03:47:30.871Z,62.70
2017-05-18T03:49:57.796Z,62.60
2017-05-18T03:52:24.734Z,62.70
2017-05-18T03:54:51.681Z,62.70
2017-05-18T03:57:18.952Z,63.40
2017-05-18T03:59:45.893Z,63.30
2017-05-18T04:02:13.587Z,62.50
2017-05-18T04:04:40.524Z,63.00
2017-05-18T04:07:08.245Z,63.50
2017-05-18T04:09:36.200Z,62.70
2017-05-18T04:12:04.597Z,63.20
2017-05-18T04:14:31.613Z,63.10
2017-05-18T04:16:58.584Z,62.50
2017-05-18T04:19:26.257Z,62.80
2017-05-18T04:21:53.213Z,62.50
2017-05-18T04:24:20.144Z,62.60
2017-05-18T04:26:47.089Z,62.50
2017-05-18T04:29:15.653Z,62.00
2017-05-18T04:31:42.607Z,62.10
2017-05-18T04:34:09.640Z,62.30
2017-05-18T04:36:36.617Z,64.00
2017-05-18T04:39:03.560Z,64.00
2017-05-18T04:41:30.583Z,63.40
2017-05-18T04:43:57.530Z,63.80
2017-05-18T04:46:24.436Z,64.20
2017-05-18T04:48:51.347Z,63.50
2017-05-18T04:51:18.299Z,62.80
2017-05-18T04:53:45.240Z,61.80
2017-05-18T04:56:12.178Z,62.60
2017-05-18T04:58:39.865Z,61.10
2017-05-18T05:01:06.795Z,61.60
2017-05-18T05:03:33.726Z,60.90
2017-05-18T05:06:01.402Z,60.70
2017-05-18T05:08:28.337Z,61.40
2017-05-18T05:10:56.035Z,60.80
2017-05-18T05:13:22.963Z,60.20
2017-05-18T05:15:49.943Z,59.60
2017-05-18T05:18:16.912Z,59.80
2017-05-18T05:20:43.834Z,60.40
2017-05-18T05:23:10.735Z,60.70
2017-05-18T05:25:37.667Z,60.30
2017-05-18T05:28:05.349Z,60.00
2017-05-18T05:30:32.307Z,59.60
2017-05-18T05:33:00.219Z,58.90
2017-05-18T05:35:27.655Z,59.10
2017-05-18T05:37:55.066Z,59.60
2017-05-18T05:50:07.879Z,57.10
2017-05-18T05:52:49.717Z,56.70
2017-05-18T05:55:16.630Z,56.70
2017-05-18T05:57:43.542Z,54.80
2017-05-18T06:00:11.179Z,55.60
2017-05-18T06:02:38.172Z,56.10
2017-05-18T06:05:05.150Z,55.70
2017-05-18T06:07:32.154Z,54.00
2017-05-18T06:09:59.906Z,53.40
2017-05-18T06:12:26.964Z,54.20
2017-05-18T06:14:53.953Z,52.60
2017-05-18T06:17:21.035Z,53.10
2017-05-18T06:19:47.934Z,52.00
2017-05-18T06:22:14.839Z,50.70
2017-05-18T06:24:41.750Z,51.10
2017-05-18T06:27:08.717Z,50.10
2017-05-18T06:29:35.871Z,51.20
2017-05-18T06:32:03.534Z,50.20
2017-05-18T06:34:31.216Z,50.20
2017-05-18T06:36:58.140Z,50.60
2017-05-18T06:39:25.785Z,49.00
2017-05-18T06:41:54.238Z,49.10
2017-05-18T06:44:21.137Z,47.70
2017-05-18T06:46:49.115Z,47.20
2017-05-18T06:49:18.591Z,48.00
2017-05-18T06:51:48.218Z,46.80
2017-05-18T06:54:16.272Z,46.70
2017-05-18T06:56:43.908Z,46.20
2017-05-18T06:59:10.851Z,46.20
2017-05-18T07:01:37.771Z,45.70
2017-05-18T07:04:04.729Z,47.70
2017-05-18T07:06:31.665Z,45.30
2017-05-18T07:08:58.592Z,45.40
2017-05-18T07:11:25.494Z,45.40
2017-05-18T07:13:52.517Z,44.70
2017-05-18T07:16:19.475Z,45.30
2017-05-18T07:18:46.416Z,43.60
2017-05-18T07:21:13.328Z,45.70
2017-05-18T07:23:40.300Z,45.00
2017-05-18T07:26:07.228Z,42.20
2017-05-18T07:28:34.109Z,44.10
2017-05-18T07:31:01.048Z,43.40
2017-05-18T07:33:27.976Z,41.70
2017-05-18T07:35:54.915Z,42.50
2017-05-18T07:38:21.855Z,41.70
2017-05-18T07:40:48.810Z,42.80
2017-05-18T07:43:15.787Z,41.90
2017-05-18T07:45:42.691Z,41.70
2017-05-18T07:48:10.853Z,40.50
2017-05-18T07:50:37.898Z,40.60
2017-05-18T07:53:04.830Z,41.20
2017-05-18T07:55:32.519Z,41.00
2017-05-18T07:57:59.451Z,40.50
2017-05-18T08:00:27.422Z,40.80
2017-05-18T08:02:55.121Z,39.60
2017-05-18T08:05:22.047Z,40.90
2017-05-18T08:07:49.034Z,40.30
2017-05-18T08:10:16.223Z,40.70
2017-05-18T08:12:43.888Z,40.40
2017-05-18T08:15:11.571Z,40.50
2017-05-18T08:17:38.539Z,40.40
2017-05-18T08:20:05.471Z,40.80
2017-05-18T08:22:32.413Z,42.20
2017-05-18T08:24:59.326Z,40.90
2017-05-18T08:27:26.983Z,40.00
2017-05-18T08:29:54.677Z,38.00
2017-05-18T08:32:21.612Z,38.90
2017-05-18T08:34:49.876Z,39.10
2017-05-18T08:37:17.552Z,40.60
2017-05-18T08:39:45.212Z,40.30
2017-05-18T08:42:14.877Z,41.50
2017-05-18T08:44:41.827Z,43.50
2017-05-18T08:47:08.756Z,43.40
2017-05-18T08:49:35.674Z,43.50
2017-05-18T08:52:02.597Z,43.80
2017-05-18T08:54:30.281Z,44.70
2017-05-18T08:56:57.289Z,47.00
2017-05-18T08:59:24.456Z,48.40
2017-05-18T09:01:52.306Z,48.10
2017-05-18T09:04:19.231Z,49.90
2017-05-18T09:06:48.035Z,49.40
2017-05-18T09:09:15.848Z,48.70
2017-05-18T09:11:42.827Z,48.90
2017-05-18T09:14:09.767Z,47.70
2017-05-18T09:16:37.024Z,47.90
2017-05-18T09:19:04.016Z,48.50
2017-05-18T09:21:31.665Z,48.10
2017-05-18T09:23:58.592Z,48.50
2017-05-18T09:26:25.522Z,49.60
2017-05-18T09:28:52.446Z,50.40
2017-05-18T09:31:19.388Z,50.60
2017-05-18T09:33:46.368Z,50.70
2017-05-18T09:36:13.287Z,50.60
2017-05-18T09:38:40.207Z,50.50
2017-05-18T09:41:08.117Z,50.40
2017-05-18T09:43:35.051Z,51.30
2017-05-18T09:46:01.983Z,52.50
2017-05-18T09:48:30.015Z,52.30
2017-05-18T09:50:56.941Z,53.20
2017-05-18T09:53:23.865Z,55.00
2017-05-18T09:55:51.249Z,54.90
2017-05-18T09:58:18.188Z,54.70
2017-05-18T10:00:45.119Z,55.50
2017-05-18T10:03:12.067Z,57.20
2017-05-18T10:05:38.993Z,56.30
2017-05-18T10:08:05.931Z,57.50
2017-05-18T10:10:32.878Z,57.80
2017-05-18T10:12:59.805Z,57.80
2017-05-18T10:15:27.470Z,57.80
2017-05-18T10:17:54.416Z,57.70
2017-05-18T10:20:22.076Z,57.00
2017-05-18T10:22:48.998Z,58.30
2017-05-18T10:25:15.994Z,57.80
2017-05-18T10:27:42.908Z,57.30
2017-05-18T10:30:10.596Z,57.90
2017-05-18T10:32:37.612Z,57.80
2017-05-18T10:35:05.268Z,57.30
2017-05-18T10:37:32.949Z,57.10
2017-05-18T10:40:00.611Z,56.60
2017-05-18T10:42:28.267Z,56.80
2017-05-18T10:44:56.332Z,56.90
2017-05-18T10:47:22.936Z,58.00
2017-05-18T10:49:50.701Z,57.30
2017-05-18T10:52:17.696Z,53.70
2017-05-18T10:54:45.799Z,55.80
2017-05-18T10:57:12.780Z,56.30
2017-05-18T10:59:40.269Z,57.30
2017-05-18T11:02:09.581Z,56.50
2017-05-18T11:04:36.544Z,55.90
2017-05-18T11:07:03.534Z,56.80
2017-05-18T11:09:30.471Z,56.60
2017-05-18T11:11:57.447Z,56.10
2017-05-18T11:14:25.170Z,56.10
2017-05-18T11:16:52.137Z,57.20
2017-05-18T11:19:19.041Z,56.70
2017-05-18T11:21:46.026Z,57.70
2017-05-18T11:24:12.971Z,57.90
2017-05-18T11:26:39.936Z,57.50
2017-05-18T11:29:06.913Z,58.00
2017-05-18T11:31:33.836Z,58.00
2017-05-18T11:34:01.478Z,59.00
2017-05-18T11:36:28.437Z,60.80
2017-05-18T11:38:55.390Z,59.60
2017-05-18T11:41:23.079Z,58.70
2017-05-18T11:43:50.031Z,59.90
2017-05-18T11:46:16.966Z,60.50
2017-05-18T11:48:43.891Z,59.80
2017-05-18T11:51:11.589Z,61.50
2017-05-18T11:53:38.528Z,61.50
2017-05-18T11:56:05.450Z,61.40
2017-05-18T11:58:33.164Z,62.40
2017-05-18T12:01:00.101Z,62.60
2017-05-18T12:03:27.060Z,62.90
2017-05-18T12:05:53.993Z,61.60
2017-05-18T12:08:20.547Z,60.40
2017-05-18T12:10:47.461Z,61.20
2017-05-18T12:13:14.394Z,61.50
2017-05-18T12:15:41.340Z,61.80
2017-05-18T12:18:07.929Z,62.50
2017-05-18T12:20:34.850Z,61.80
2017-05-18T12:23:01.851Z,61.70
2017-05-18T12:25:29.509Z,64.20
2017-05-18T12:27:57.123Z,63.10
2017-05-18T12:30:24.073Z,63.70
2017-05-18T12:32:51.029Z,64.20
2017-05-18T12:35:17.995Z,63.60
2017-05-18T12:37:44.963Z,63.10
2017-05-18T12:40:12.629Z,64.30
2017-05-18T12:42:40.325Z,63.10
2017-05-18T12:45:07.248Z,64.10
2017-05-18T12:47:34.185Z,64.80
2017-05-18T12:50:01.868Z,65.30
2017-05-18T12:52:28.797Z,63.60
2017-05-18T12:54:55.745Z,62.80
2017-05-18T12:57:22.720Z,61.90
2017-05-18T12:59:49.640Z,63.70
2017-05-18T13:02:17.507Z,63.20
2017-05-18T13:04:44.471Z,64.50
2017-05-18T13:07:11.391Z,62.90
2017-05-18T13:09:39.036Z,61.70
2017-05-18T13:12:05.980Z,61.70
2017-05-18T13:14:32.908Z,61.70
2017-05-18T13:16:59.801Z,61.20
2017-05-18T13:19:26.748Z,61.20
2017-05-18T13:21:53.747Z,62.00
2017-05-18T13:24:20.662Z,61.50
2017-05-18T13:26:47.879Z,60.10
2017-05-18T13:29:15.581Z,61.00
2017-05-18T13:31:43.343Z,62.30
2017-05-18T13:34:10.316Z,63.00
2017-05-18T13:36:37.239Z,61.50
2017-05-18T13:39:04.220Z,60.50
2017-05-18T13:41:31.492Z,58.50
2017-05-18T13:43:59.564Z,57.30
2017-05-18T13:46:27.235Z,57.20
2017-05-18T13:48:54.885Z,57.80
2017-05-18T13:51:22.584Z,57.20
2017-05-18T13:53:49.765Z,57.50
2017-05-18T13:56:16.707Z,56.00
2017-05-18T13:58:43.639Z,56.10
2017-05-18T14:01:13.114Z,55.20
2017-05-18T14:03:40.125Z,55.50
2017-05-18T14:06:07.043Z,55.50
2017-05-18T14:08:33.968Z,55.90
2017-05-18T14:11:00.992Z,54.20
2017-05-18T14:13:28.643Z,54.60
2017-05-18T14:15:56.963Z,53.50
2017-05-18T14:18:23.935Z,55.00
2017-05-18T14:20:50.857Z,55.00
2017-05-18T14:23:18.029Z,53.90
2017-05-18T14:25:44.947Z,54.70
2017-05-18T14:28:11.883Z,54.20
2017-05-18T14:30:38.785Z,52.60
2017-05-18T14:33:05.713Z,52.30
2017-05-18T14:35:32.705Z,53.00
2017-05-18T14:38:00.451Z,50.90
2017-05-18T14:40:27.401Z,54.00
2017-05-18T14:42:55.054Z,52.30
2017-05-18T14:45:22.106Z,53.10
2017-05-18T14:47:49.813Z,52.90
2017-05-18T14:50:16.912Z,53.20
2017-05-18T14:52:44.913Z,53.80
2017-05-18T14:55:11.881Z,53.90
2017-05-18T14:57:38.846Z,53.40
2017-05-18T15:00:05.736Z,54.70
2017-05-18T15:02:33.473Z,53.50
2017-05-18T15:05:00.378Z,54.70
2017-05-18T15:07:27.323Z,54.70
2017-05-18T15:09:54.268Z,54.00
2017-05-18T15:12:21.341Z,53.80
2017-05-18T15:14:48.365Z,54.70
2017-05-18T15:17:15.313Z,54.70
2017-05-18T15:19:42.594Z,54.60
2017-05-18T15:22:09.531Z,54.70
2017-05-18T15:24:36.531Z,54.70
2017-05-18T15:27:04.224Z,54.40
2017-05-18T15:29:31.143Z,54.90
2017-05-18T15:31:58.136Z,55.00
2017-05-18T15:34:25.060Z,53.70
2017-05-18T15:36:51.952Z,54.30
2017-05-18T15:39:18.908Z,54.40
2017-05-18T15:41:45.807Z,55.50
2017-05-18T15:44:12.736Z,53.60
2017-05-18T15:46:39.715Z,54.10
2017-05-18T15:49:06.831Z,54.50
2017-05-18T15:51:34.135Z,53.80
2017-05-18T15:54:01.101Z,54.50
2017-05-18T15:56:28.796Z,54.20
2017-05-18T15:58:55.707Z,54.50
2017-05-18T16:01:23.431Z,55.50
2017-05-18T16:03:50.342Z,54.50
2017-05-18T16:06:17.327Z,55.10
2017-05-18T16:08:45.247Z,54.60
2017-05-18T16:11:13.008Z,54.50
2017-05-18T16:13:40.727Z,54.40
2017-05-18T16:16:07.652Z,54.40
2017-05-18T16:18:34.804Z,54.30
2017-05-18T16:21:02.707Z,55.50
2017-05-18T16:23:30.399Z,55.80
2017-05-18T16:25:58.085Z,56.00
2017-05-18T16:28:25.849Z,55.40
2017-05-18T16:30:52.767Z,55.60
2017-05-18T16:33:20.437Z,55.50
2017-05-18T16:35:48.407Z,54.60
2017-05-18T16:38:16.128Z,55.00
2017-05-18T16:40:43.068Z,54.60
2017-05-18T16:43:09.987Z,55.00
2017-05-18T16:45:36.944Z,55.10
2017-05-18T16:48:03.875Z,54.10
2017-05-18T16:50:31.602Z,53.70
2017-05-18T17:02:48.787Z,56.20
2017-05-18T17:05:15.720Z,56.20
2017-05-18T17:07:42.639Z,57.50
2017-05-18T17:10:09.555Z,56.20
2017-05-18T17:12:36.481Z,57.30
2017-05-18T17:15:04.182Z,57.20
2017-05-18T17:17:31.172Z,57.20
2017-05-18T17:19:58.128Z,57.20
2017-05-18T17:22:25.838Z,56.50
2017-05-18T17:24:52.748Z,57.00
2017-05-18T17:27:20.524Z,56.40
2017-05-18T17:29:47.508Z,57.30
2017-05-18T17:32:14.452Z,57.30
2017-05-18T17:34:41.385Z,57.10
2017-05-18T17:37:08.360Z,57.30
2017-05-18T17:39:35.298Z,57.30
2017-05-18T17:42:02.265Z,57.70
2017-05-18T17:44:29.275Z,57.50
2017-05-18T17:46:55.871Z,57.10
2017-05-18T17:49:22.803Z,58.00
2017-05-18T17:51:49.752Z,57.40
2017-05-18T17:54:16.656Z,58.00
2017-05-18T17:56:43.649Z,58.30
2017-05-18T17:59:10.313Z,58.10
2017-05-18T18:01:37.371Z,59.30
2017-05-18T18:04:04.325Z,60.10
2017-05-18T18:06:31.291Z,60.00
2017-05-18T18:08:58.324Z,60.50
2017-05-18T18:11:25.280Z,60.30
2017-05-18T18:13:52.258Z,60.80
2017-05-18T18:16:19.179Z,60.40
2017-05-18T18:18:46.088Z,60.90
2017-05-18T18:21:13.037Z,60.90
2017-05-18T18:23:39.996Z,60.80
2017-05-18T18:26:06.932Z,60.80
2017-05-18T18:28:33.901Z,61.10
2017-05-18T18:31:00.846Z,61.60
2017-05-18T18:33:27.846Z,62.00
2017-05-18T18:35:55.556Z,62.40
2017-05-18T18:38:22.512Z,62.90
2017-05-18T18:40:49.522Z,63.50
2017-05-18T18:43:16.537Z,64.00
2017-05-18T18:45:44.202Z,63.60
2017-05-18T18:48:11.163Z,64.00
2017-05-18T18:50:38.813Z,64.30
2017-05-18T18:53:06.538Z,64.70
2017-05-18T18:55:33.529Z,64.70
2017-05-18T18:58:01.201Z,64.60
2017-05-18T19:00:28.881Z,64.60
2017-05-18T19:02:55.860Z,64.60
2017-05-18T19:05:22.794Z,64.60
2017-05-18T19:07:49.729Z,64.60
2017-05-18T19:10:16.664Z,65.30
2017-05-18T19:12:43.561Z,65.40
2017-05-18T19:15:10.564Z,65.80
2017-05-18T19:17:37.475Z,65.80
2017-05-18T19:20:05.110Z,65.80
2017-05-18T19:22:32.066Z,66.20
2017-05-18T19:25:00.222Z,66.00
2017-05-18T19:27:27.529Z,66.10
2017-05-18T19:29:54.516Z,67.10
2017-05-18T19:32:21.449Z,66.50
2017-05-18T19:34:48.416Z,66.30
2017-05-18T19:37:15.448Z,67.00
2017-05-18T19:39:42.370Z,66.40
2017-05-18T19:42:09.273Z,66.50
2017-05-18T19:44:36.260Z,66.30
2017-05-18T19:47:03.205Z,67.30
2017-05-18T19:49:30.174Z,66.30
2017-05-18T19:51:57.118Z,66.30
2017-05-18T19:54:24.058Z,65.80
2017-05-18T19:56:51.001Z,65.70
2017-05-18T19:59:17.974Z,65.70
2017-05-18T20:01:44.945Z,66.50
2017-05-18T20:04:11.859Z,66.40
2017-05-18T20:06:38.877Z,66.60
2017-05-18T20:09:05.867Z,67.30
2017-05-18T20:11:32.805Z,67.50
2017-05-18T20:13:59.753Z,67.70
2017-05-18T20:16:27.577Z,67.00
2017-05-18T20:18:55.005Z,67.50
2017-05-18T20:21:22.719Z,67.80
2017-05-18T20:23:50.667Z,67.90
2017-05-18T20:26:17.635Z,67.60
2017-05-18T20:28:44.580Z,68.10
2017-05-18T20:31:11.502Z,68.10
2017-05-18T20:33:39.402Z,67.60
2017-05-18T20:36:06.505Z,67.80
2017-05-18T20:38:34.197Z,67.90
2017-05-18T20:41:01.138Z,67.60
2017-05-18T20:43:28.204Z,68.00
2017-05-18T20:45:55.129Z,67.70
2017-05-18T20:48:22.159Z,68.50
2017-05-18T20:50:49.846Z,69.20
2017-05-18T20:53:16.794Z,68.90
2017-05-18T20:55:43.748Z,68.60
2017-05-18T20:58:11.555Z,69.00
2017-05-18T21:00:38.498Z,68.00
2017-05-18T21:12:50.453Z,69.40
2017-05-18T21:15:17.371Z,68.50
2017-05-18T21:17:44.500Z,68.50
2017-05-18T21:20:11.490Z,68.60
2017-05-18T21:22:38.439Z,69.30
2017-05-18T21:25:05.364Z,69.10
2017-05-18T21:27:32.262Z,68.80
2017-05-18T21:29:59.179Z,69.50
2017-05-18T21:32:27.038Z,69.30
2017-05-18T21:34:54.495Z,69.30
2017-05-18T21:37:21.892Z,69.50
2017-05-18T21:39:49.579Z,70.20
2017-05-18T21:42:20.511Z,70.50
2017-05-18T21:44:47.459Z,70.10
2017-05-18T21:47:14.687Z,70.00
2017-05-18T21:49:42.355Z,70.20
2017-05-18T21:52:10.080Z,70.40
2017-05-18T21:54:37.044Z,71.40
2017-05-18T21:57:04.923Z,71.30
2017-05-18T21:59:32.620Z,70.40
2017-05-18T22:02:03.292Z,69.50
2017-05-18T22:04:30.541Z,69.90
2017-05-18T22:07:00.597Z,70.40
2017-05-18T22:09:27.601Z,70.20
2017-05-18T22:11:54.536Z,70.90
2017-05-18T22:14:21.454Z,70.30
2017-05-18T22:16:48.448Z,70.60
2017-05-18T22:19:15.367Z,70.90
2017-05-18T22:21:43.141Z,70.80
2017-05-18T22:24:10.146Z,71.00
2017-05-18T22:26:38.344Z,70.40
2017-05-18T22:29:05.292Z,69.90
2017-05-18T22:31:32.235Z,70.00
2017-05-18T22:33:59.174Z,69.80
2017-05-18T22:36:26.068Z,69.70
2017-05-18T22:38:53.036Z,69.70
2017-05-18T22:41:20.706Z,70.80
2017-05-18T22:43:48.696Z,70.40
2017-05-18T22:46:30.539Z,71.10
2017-05-18T22:48:57.474Z,71.10
2017-05-18T22:51:24.380Z,70.60
2017-05-18T22:53:51.337Z,70.80
2017-05-18T22:56:18.265Z,70.80
2017-05-18T22:58:46.869Z,70.40
2017-05-18T23:01:13.804Z,70.00
2017-05-18T23:03:40.714Z,70.30
2017-05-18T23:06:07.650Z,70.20
2017-05-18T23:08:34.602Z,70.70
2017-05-18T23:11:01.548Z,71.00
2017-05-18T23:13:28.442Z,70.90
2017-05-18T23:15:55.428Z,70.90
2017-05-18T23:18:22.383Z,71.00
2017-05-18T23:20:49.319Z,71.00
2017-05-18T23:23:16.290Z,71.00
2017-05-18T23:25:43.964Z,70.80
2017-05-18T23:28:10.890Z,70.60
2017-05-18T23:30:37.803Z,70.50
2017-05-18T23:33:04.752Z,71.10
2017-05-18T23:35:31.689Z,70.50
2017-05-18T23:37:59.462Z,70.30
2017-05-18T23:40:26.391Z,69.70
2017-05-18T23:42:53.293Z,70.00
2017-05-18T23:45:20.938Z,71.00
2017-05-18T23:47:47.891Z,70.80
2017-05-18T23:50:14.851Z,71.10
2017-05-18T23:52:42.550Z,71.40
2017-05-18T23:55:09.494Z,72.70
2017-05-18T23:57:37.242Z,74.40
